Time;durP1;ratioP1;P1;durP2;ratioP2;P2;SDS_P1;SDS_P2;PMS_P1;PMS_P2;Temp;Humidity;BMP_temperature;BMP_pressure;BME280_temperature;BME280_humidity;BME280_pressure;Samples;Min_cycle;Max_cycle;Signal;HPM_P1;HPM_P2
2022/01/08 00:00:00;;;;;;;18.07;12.57;;;;;;;-0.08;100.00;100991.47;5031912;28;20021;-60
2022/01/08 00:02:25;;;;;;;16.10;11.93;;;;;;;-0.11;100.00;100983.59;5031694;28;20201;-61
2022/01/08 00:04:50;;;;;;;14.90;11.70;;;;;;;-0.16;100.00;100989.97;5031651;28;20041;-59
2022/01/08 00:07:16;;;;;;;13.90;10.90;;;;;;;-0.18;100.00;100989.84;5031768;28;20654;-59
2022/01/08 00:09:41;;;;;;;15.73;10.77;;;;;;;-0.22;100.00;100999.69;5031360;28;20081;-59
2022/01/08 00:12:07;;;;;;;16.33;11.73;;;;;;;-0.22;100.00;100997.16;5031447;28;20041;-59
2022/01/08 00:14:32;;;;;;;15.87;11.17;;;;;;;-0.25;100.00;100996.13;5031975;28;20025;-60
2022/01/08 00:16:58;;;;;;;16.83;11.70;;;;;;;-0.25;100.00;101003.78;5029379;28;20474;-60
2022/01/08 00:19:23;;;;;;;16.43;12.13;;;;;;;-0.27;100.00;100997.66;5016082;28;20064;-60
2022/01/08 00:21:49;;;;;;;20.93;12.07;;;;;;;-0.27;100.00;101005.31;5012425;28;20036;-58
2022/01/08 00:24:15;;;;;;;15.67;11.53;;;;;;;-0.29;100.00;101006.84;5011978;28;20413;-59
2022/01/08 00:26:41;;;;;;;15.13;11.30;;;;;;;-0.31;100.00;101013.50;5020760;28;20091;-59
2022/01/08 00:29:06;;;;;;;16.63;11.60;;;;;;;-0.34;100.00;101010.69;5026862;28;20142;-59
2022/01/08 00:31:31;;;;;;;15.13;11.63;;;;;;;-0.35;100.00;101001.28;5031126;28;20033;-59
2022/01/08 00:33:56;;;;;;;17.13;11.63;;;;;;;-0.38;100.00;101001.91;5027937;28;20065;-59
2022/01/08 00:36:22;;;;;;;14.23;11.87;;;;;;;-0.37;100.00;101018.09;5012097;28;20034;-59
2022/01/08 00:38:47;;;;;;;17.53;12.17;;;;;;;-0.39;100.00;101025.63;5012330;28;20025;-60
2022/01/08 00:41:13;;;;;;;14.47;11.30;;;;;;;-0.39;100.00;101025.63;5012201;28;20029;-59
2022/01/08 00:43:38;;;;;;;19.13;11.90;;;;;;;-0.41;100.00;101016.97;5022684;28;20104;-59
2022/01/08 00:46:04;;;;;;;15.87;11.10;;;;;;;-0.41;100.00;101016.06;5012167;28;20109;-60
2022/01/08 00:48:29;;;;;;;17.43;11.53;;;;;;;-0.43;100.00;101020.16;5012119;28;20041;-59
2022/01/08 00:50:55;;;;;;;15.07;11.77;;;;;;;-0.43;100.00;101027.81;5011950;28;20088;-60
2022/01/08 00:53:20;;;;;;;20.73;12.23;;;;;;;-0.42;100.00;101037.22;5017848;28;20038;-59
2022/01/08 00:55:46;;;;;;;16.03;11.97;;;;;;;-0.40;100.00;101046.78;5011568;28;20281;-59
2022/01/08 00:58:11;;;;;;;19.63;12.13;;;;;;;-0.39;100.00;101047.63;5011633;28;20049;-60
2022/01/08 01:00:37;;;;;;;16.80;13.53;;;;;;;-0.39;100.00;101042.53;5011637;28;20030;-60
2022/01/08 01:03:02;;;;;;;15.13;12.23;;;;;;;-0.37;100.00;101043.56;5013029;28;20123;-60
2022/01/08 01:05:28;;;;;;;14.10;12.43;;;;;;;-0.36;100.00;101040.28;5011757;28;20113;-58
2022/01/08 01:07:54;;;;;;;18.87;12.60;;;;;;;-0.34;100.00;101038.69;5014325;28;20027;-58
2022/01/08 01:10:19;;;;;;;20.23;13.13;;;;;;;-0.33;100.00;101039.59;5011584;28;20042;-58
2022/01/08 01:12:45;;;;;;;19.57;12.47;;;;;;;-0.34;100.00;101038.69;5016409;28;20056;-60
2022/01/08 01:15:14;;;;;;;15.33;12.20;;;;;;;-0.34;100.00;101037.84;5030379;28;20030;-60
2022/01/08 01:17:40;;;;;;;18.27;13.10;;;;;;;-0.34;100.00;101037.84;5029791;28;20029;-58
2022/01/08 01:20:08;;;;;;;14.30;11.90;;;;;;;-0.37;100.00;101043.56;5013408;28;20101;-60
2022/01/08 01:25:48;;;;;;;20.23;13.70;;;;;;;-0.37;100.00;101028.28;5002896;28;20033;-58
2022/01/08 01:28:41;;;;;;;16.87;13.23;;;;;;;-0.35;100.00;101031.84;5007927;28;20450;-60
2022/01/08 01:42:23;;;;;;;21.53;15.87;;;;;;;-0.40;100.00;101038.22;4911614;29;20119;-58
2022/01/08 01:47:35;;;;;;;22.13;15.60;;;;;;;-0.43;100.00;101053.28;4911427;29;20062;-60
2022/01/08 01:50:04;;;;;;;21.07;16.70;;;;;;;-0.46;100.00;101042.81;4910765;29;20043;-60
2022/01/08 01:52:30;;;;;;;24.23;18.60;;;;;;;-0.48;100.00;101045.25;4911130;29;20056;-59
2022/01/08 01:54:55;;;;;;;22.60;18.33;;;;;;;-0.50;100.00;101042.59;4911117;29;20103;-60
2022/01/08 01:57:21;;;;;;;24.40;19.03;;;;;;;-0.49;100.00;101041.81;4911171;29;20052;-59
2022/01/08 01:59:46;;;;;;;27.10;20.23;;;;;;;-0.49;100.00;101044.34;4911021;29;20032;-60
2022/01/08 02:02:11;;;;;;;23.97;19.40;;;;;;;-0.47;100.00;101035.97;4922224;29;20044;-58
2022/01/08 02:04:37;;;;;;;27.23;19.87;;;;;;;-0.47;100.00;101035.97;4929886;29;20477;-60
2022/01/08 02:07:03;;;;;;;23.03;18.87;;;;;;;-0.50;100.00;101029.84;4929924;29;20583;-58
2022/01/08 02:09:28;;;;;;;27.30;19.83;;;;;;;-0.52;100.00;101033.06;4929746;29;20050;-60
2022/01/08 02:12:10;;;;;;;23.50;18.77;;;;;;;-0.52;100.00;101033.94;4981904;28;20074;-58
2022/01/08 02:14:37;;;;;;;27.40;19.93;;;;;;;-0.58;100.00;101035.09;4992970;28;20034;-60
2022/01/08 02:17:07;;;;;;;26.93;22.10;;;;;;;-0.57;100.00;101035.22;4990723;28;20038;-61
2022/01/08 02:19:32;;;;;;;26.53;20.80;;;;;;;-0.59;100.00;101039.28;4992231;28;20033;-60
2022/01/08 02:22:00;;;;;;;25.20;19.80;;;;;;;-0.61;100.00;101045.91;4993081;28;20034;-59
2022/01/08 02:24:27;;;;;;;29.50;21.43;;;;;;;-0.61;100.00;101043.38;4990461;28;20062;-58
2022/01/08 02:26:53;;;;;;;26.13;20.30;;;;;;;-0.63;100.00;101045.78;4990494;28;20206;-59
2022/01/08 02:29:20;;;;;;;26.33;20.90;;;;;;;-0.63;100.00;101039.84;4994605;28;20534;-60
2022/01/08 02:32:10;;;;;;;26.57;21.47;;;;;;;-0.64;100.00;101044.03;4995669;28;20033;-57
2022/01/08 02:34:38;;;;;;;26.97;20.60;;;;;;;-0.64;100.00;101044.03;5024830;28;20041;-59
2022/01/08 02:37:05;;;;;;;30.73;20.83;;;;;;;-0.65;100.00;101049.00;5011221;28;20027;-59
2022/01/08 02:39:34;;;;;;;25.47;21.80;;;;;;;-0.66;100.00;101049.75;5011125;28;20029;-59
2022/01/08 02:41:59;;;;;;;26.93;21.77;;;;;;;-0.66;100.00;101057.38;5017887;28;20056;-59
2022/01/08 02:44:27;;;;;;;27.90;20.00;;;;;;;-0.67;100.00;101051.44;5011891;28;20028;-60
2022/01/08 02:46:52;;;;;;;28.13;21.50;;;;;;;-0.64;100.00;101058.41;5010130;28;20025;-59
2022/01/08 02:49:18;;;;;;;25.73;20.83;;;;;;;-0.65;100.00;101057.50;5009913;28;20032;-60
2022/01/08 02:51:44;;;;;;;32.50;21.27;;;;;;;-0.67;100.00;101058.16;5012523;28;20062;-60
2022/01/08 02:54:11;;;;;;;24.07;20.97;;;;;;;-0.66;100.00;101065.03;5009853;28;20033;-60
2022/01/08 02:56:40;;;;;;;27.80;19.63;;;;;;;-0.64;100.00;101058.41;5010284;28;20033;-60
2022/01/08 02:59:07;;;;;;;28.17;19.37;;;;;;;-0.65;100.00;101062.59;5010145;28;20073;-58
2022/01/08 03:01:32;;;;;;;31.37;21.83;;;;;;;-0.62;100.00;101061.97;5015506;28;20546;-59
2022/01/08 03:03:58;;;;;;;29.23;20.80;;;;;;;-0.62;100.00;101061.97;5009698;28;20030;-58
2022/01/08 03:06:23;;;;;;;24.80;19.30;;;;;;;-0.62;100.00;101051.78;5009646;28;20026;-58
2022/01/08 03:08:49;;;;;;;25.37;19.43;;;;;;;-0.64;100.00;101059.31;5009774;28;20471;-59
2022/01/08 03:11:14;;;;;;;25.10;19.47;;;;;;;-0.64;100.00;101046.56;5009665;28;20029;-58
2022/01/08 03:13:40;;;;;;;29.07;19.77;;;;;;;-0.64;100.00;101048.22;5014520;28;20045;-59
2022/01/08 03:16:05;;;;;;;27.60;19.87;;;;;;;-0.65;100.00;101049.88;5014052;28;20026;-59
2022/01/08 03:18:31;;;;;;;31.83;21.03;;;;;;;-0.64;100.00;101046.56;5013490;28;20398;-58
2022/01/08 03:21:02;;;;;;;27.87;19.23;;;;;;;-0.64;100.00;101046.56;5015248;28;20025;-59
2022/01/08 03:23:39;;;;;;;29.73;19.02;;;;;;;-0.64;100.00;101053.31;5013311;28;20089;-60
2022/01/08 03:26:05;;;;;;;30.37;19.10;;;;;;;-0.65;100.00;101054.97;5032682;28;20025;-58
2022/01/08 03:28:31;;;;;;;27.27;18.90;;;;;;;-0.65;100.00;101056.63;5020056;28;20024;-60
2022/01/08 03:30:56;;;;;;;27.07;18.30;;;;;;;-0.65;100.00;101054.09;5013366;28;20141;-60
2022/01/08 03:33:21;;;;;;;24.83;18.27;;;;;;;-0.65;100.00;101051.53;5013214;28;20046;-59
2022/01/08 03:35:47;;;;;;;28.83;18.70;;;;;;;-0.63;100.00;101060.19;5013270;28;20026;-59
2022/01/08 03:38:12;;;;;;;25.33;18.30;;;;;;;-0.62;100.00;101064.50;5013169;28;20066;-60
2022/01/08 03:40:37;;;;;;;25.90;17.50;;;;;;;-0.63;100.00;101066.16;5013161;28;20033;-60
2022/01/08 03:43:03;;;;;;;24.80;16.57;;;;;;;-0.62;100.00;101067.06;5018425;28;20034;-59
2022/01/08 03:45:28;;;;;;;23.20;17.57;;;;;;;-0.63;100.00;101072.94;5019649;28;20025;-59
2022/01/08 03:48:06;;;;;;;23.83;18.53;;;;;;;-0.63;100.00;101078.03;5014614;28;20061;-59
2022/01/08 03:50:32;;;;;;;27.30;18.40;;;;;;;-0.66;100.00;101071.00;5013394;28;20030;-58
2022/01/08 03:52:57;;;;;;;24.23;17.27;;;;;;;-0.66;100.00;101065.03;5013215;28;20492;-58
2022/01/08 03:55:22;;;;;;;27.60;17.37;;;;;;;-0.67;100.00;101059.06;5013298;28;20021;-59
2022/01/08 03:57:48;;;;;;;24.40;18.07;;;;;;;-0.67;100.00;101058.16;5015030;28;20498;-60
2022/01/08 04:00:14;;;;;;;25.60;16.73;;;;;;;-0.69;100.00;101050.41;5013067;28;20021;-58
2022/01/08 04:02:39;;;;;;;28.03;16.67;;;;;;;-0.69;100.00;101063.13;5013027;28;20250;-59
2022/01/08 04:05:05;;;;;;;25.63;16.13;;;;;;;-0.69;100.00;101057.13;5014796;28;20026;-58
2022/01/08 04:07:30;;;;;;;22.70;15.67;;;;;;;-0.67;100.00;101068.34;5016559;28;20018;-59
2022/01/08 04:09:56;;;;;;;23.90;15.93;;;;;;;-0.66;100.00;101075.19;5012705;28;20097;-59
2022/01/08 04:12:32;;;;;;;23.90;16.93;;;;;;;-0.67;100.00;101075.97;5012681;28;20545;-60
2022/01/08 04:15:06;;;;;;;20.33;16.10;;;;;;;-0.68;100.00;101081.81;5018945;28;20064;-59
2022/01/08 04:17:31;;;;;;;23.73;16.23;;;;;;;-0.69;100.00;101086.03;5013059;28;20419;-59
2022/01/08 04:19:57;;;;;;;22.93;16.67;;;;;;;-0.69;100.00;101074.97;5012472;28;20109;-58
2022/01/08 04:22:24;;;;;;;19.87;16.17;;;;;;;-0.70;100.00;101073.19;5015840;28;20439;-59
2022/01/08 04:24:49;;;;;;;23.67;16.30;;;;;;;-0.70;100.00;101073.19;5012466;28;20470;-59
2022/01/08 04:27:15;;;;;;;21.70;16.83;;;;;;;-0.71;100.00;101084.13;5012196;28;20029;-57
2022/01/08 04:29:41;;;;;;;25.80;17.10;;;;;;;-0.73;100.00;101091.63;5012270;28;20024;-59
2022/01/08 04:32:07;;;;;;;25.13;17.07;;;;;;;-0.71;100.00;101091.75;5012461;28;20032;-58
2022/01/08 04:34:32;;;;;;;24.27;17.77;;;;;;;-0.73;100.00;101095.09;5012174;28;20046;-60
2022/01/08 04:36:57;;;;;;;19.53;16.47;;;;;;;-0.73;100.00;101094.19;5012172;28;20029;-59
2022/01/08 04:39:23;;;;;;;22.73;17.67;;;;;;;-0.73;100.00;101099.28;5012188;28;20026;-60
2022/01/08 04:41:48;;;;;;;21.60;16.73;;;;;;;-0.73;100.00;101104.38;5018419;28;20057;-58
2022/01/08 04:44:14;;;;;;;22.03;16.63;;;;;;;-0.71;100.00;101097.75;5011939;28;20534;-59
2022/01/08 04:46:41;;;;;;;25.00;17.93;;;;;;;-0.71;100.00;101107.94;5011995;28;20097;-59
2022/01/08 04:49:06;;;;;;;22.33;17.47;;;;;;;-0.73;100.00;101100.19;5012040;28;20030;-60
2022/01/08 04:51:32;;;;;;;20.80;16.50;;;;;;;-0.75;100.00;101091.53;5011856;28;20022;-59
2022/01/08 04:53:57;;;;;;;27.60;18.20;;;;;;;-0.74;100.00;101103.47;5011775;28;20049;-60
2022/01/08 04:56:22;;;;;;;22.47;17.53;;;;;;;-0.73;100.00;101101.81;5015059;28;20052;-59
2022/01/08 04:58:48;;;;;;;26.07;18.27;;;;;;;-0.74;100.00;101117.88;5012894;28;20021;-60
2022/01/08 05:01:15;;;;;;;23.80;18.13;;;;;;;-0.73;100.00;101114.56;5012066;28;20407;-60
2022/01/08 05:03:40;;;;;;;24.57;17.80;;;;;;;-0.76;100.00;101112.66;5012057;28;20038;-60
2022/01/08 05:06:06;;;;;;;24.83;19.23;;;;;;;-0.73;100.00;101117.09;5014765;28;20577;-59
2022/01/08 05:08:31;;;;;;;26.60;18.03;;;;;;;-0.75;100.00;101111.88;5011627;28;20104;-59
2022/01/08 05:10:57;;;;;;;20.77;16.90;;;;;;;-0.76;100.00;101109.22;5012149;28;20030;-58
2022/01/08 05:13:22;;;;;;;24.67;17.23;;;;;;;-0.75;100.00;101113.53;5011557;28;20025;-59
2022/01/08 05:15:47;;;;;;;25.10;17.43;;;;;;;-0.77;100.00;101115.94;5011443;28;20029;-57
2022/01/08 05:18:13;;;;;;;21.57;18.00;;;;;;;-0.75;100.00;101122.06;5014550;28;20057;-59
2022/01/08 05:20:41;;;;;;;19.90;17.60;;;;;;;-0.75;100.00;101114.44;5011455;28;20025;-60
2022/01/08 05:23:07;;;;;;;19.80;15.77;;;;;;;-0.74;100.00;101116.19;5020147;28;20128;-60
2022/01/08 05:25:33;;;;;;;24.07;17.70;;;;;;;-0.71;100.00;101123.22;5030302;28;20109;-59
2022/01/08 05:27:59;;;;;;;24.60;16.57;;;;;;;-0.71;100.00;101124.84;5030086;28;20477;-59
2022/01/08 05:30:26;;;;;;;23.83;16.40;;;;;;;-0.71;100.00;101112.13;5029930;28;20029;-59
2022/01/08 05:32:51;;;;;;;22.80;16.93;;;;;;;-0.72;100.00;101111.25;5029742;28;20041;-59
2022/01/08 05:35:17;;;;;;;22.47;16.87;;;;;;;-0.73;100.00;101118.00;5028592;28;20124;-58
2022/01/08 05:37:43;;;;;;;23.67;16.97;;;;;;;-0.71;100.00;101127.41;5015982;28;20040;-59
2022/01/08 05:40:10;;;;;;;17.77;15.23;;;;;;;-0.72;100.00;101131.63;5017547;28;20109;-57
2022/01/08 05:42:36;;;;;;;22.20;15.73;;;;;;;-0.74;100.00;101131.47;5017564;28;20453;-59
2022/01/08 05:45:02;;;;;;;24.93;16.50;;;;;;;-0.77;100.00;101128.69;5010935;28;20040;-59
2022/01/08 05:47:30;;;;;;;23.10;15.80;;;;;;;-0.74;100.00;101128.06;5012074;28;20057;-60
2022/01/08 05:49:55;;;;;;;24.57;16.10;;;;;;;-0.74;100.00;101118.75;5010742;28;20032;-59
2022/01/08 05:52:21;;;;;;;22.40;16.83;;;;;;;-0.75;100.00;101122.06;5010617;28;20117;-59
2022/01/08 05:54:46;;;;;;;25.23;16.20;;;;;;;-0.73;100.00;101137.47;5016012;28;20031;-59
2022/01/08 05:57:11;;;;;;;22.93;15.50;;;;;;;-0.73;100.00;101134.91;5014921;28;20025;-60
2022/01/08 05:59:37;;;;;;;21.17;14.83;;;;;;;-0.73;100.00;101140.91;5012382;28;20030;-59
2022/01/08 06:02:03;;;;;;;18.93;15.43;;;;;;;-0.71;100.00;101140.13;5010581;28;20069;-58
2022/01/08 06:04:28;;;;;;;28.53;16.03;;;;;;;-0.72;100.00;101134.16;5010598;28;20033;-59
2022/01/08 06:06:53;;;;;;;20.60;15.67;;;;;;;-0.73;100.00;101143.44;5010559;28;20034;-60
2022/01/08 06:09:18;;;;;;;22.10;15.53;;;;;;;-0.73;100.00;101151.09;5016759;28;20125;-58
2022/01/08 06:11:44;;;;;;;24.90;16.87;;;;;;;-0.74;100.00;101149.28;5010296;28;20065;-59
2022/01/08 06:14:09;;;;;;;18.33;15.57;;;;;;;-0.76;100.00;101150.84;5014431;28;20029;-60
2022/01/08 06:16:37;;;;;;;19.87;16.53;;;;;;;-0.75;100.00;101162.78;5014348;28;20117;-59
2022/01/08 06:19:08;;;;;;;20.83;16.57;;;;;;;-0.74;100.00;101158.59;5010261;28;20374;-59
2022/01/08 06:21:34;;;;;;;21.97;16.47;;;;;;;-0.75;100.00;101167.88;5010434;28;20096;-59
2022/01/08 06:24:00;;;;;;;23.10;17.83;;;;;;;-0.74;100.00;101163.69;5010308;28;20037;-60
2022/01/08 06:26:25;;;;;;;22.23;17.50;;;;;;;-0.75;100.00;101162.78;5016667;28;20029;-59
2022/01/08 06:28:51;;;;;;;22.27;17.63;;;;;;;-0.74;100.00;101164.56;5010203;28;20454;-59
2022/01/08 06:31:21;;;;;;;24.07;16.43;;;;;;;-0.73;100.00;101161.28;5010254;28;20121;-59
2022/01/08 06:33:47;;;;;;;21.80;16.90;;;;;;;-0.73;100.00;101160.38;5013767;28;20503;-58
2022/01/08 06:36:13;;;;;;;23.67;16.67;;;;;;;-0.73;100.00;101161.28;5010437;28;20241;-60
2022/01/08 06:38:39;;;;;;;23.60;17.43;;;;;;;-0.71;100.00;101157.94;5012975;28;20076;-59
2022/01/08 06:41:04;;;;;;;22.00;17.43;;;;;;;-0.72;100.00;101157.06;5009739;28;20029;-59
2022/01/08 06:43:29;;;;;;;21.63;15.93;;;;;;;-0.74;100.00;101138.25;5010509;28;20026;-59
2022/01/08 06:45:55;;;;;;;22.17;17.10;;;;;;;-0.74;100.00;101139.09;5010252;28;20037;-59
2022/01/08 06:48:20;;;;;;;23.13;17.67;;;;;;;-0.75;100.00;101142.44;5009599;28;20554;-58
2022/01/08 06:50:45;;;;;;;22.90;17.57;;;;;;;-0.77;100.00;101138.84;5022539;28;20029;-60
2022/01/08 06:53:11;;;;;;;24.60;17.50;;;;;;;-0.79;100.00;101142.94;5028750;28;20052;-59
2022/01/08 06:55:36;;;;;;;24.70;18.23;;;;;;;-0.79;100.00;101130.19;5025085;28;20034;-58
2022/01/08 06:58:02;;;;;;;22.93;17.47;;;;;;;-0.82;100.00;101135.03;5017878;28;20050;-57
2022/01/08 07:00:28;;;;;;;23.00;17.33;;;;;;;-0.83;100.00;101130.72;5010691;28;20022;-59
2022/01/08 07:02:53;;;;;;;29.83;17.93;;;;;;;-0.83;100.00;101133.28;5008399;28;20486;-59
2022/01/08 07:05:18;;;;;;;25.07;17.40;;;;;;;-0.85;100.00;101139.88;5009876;28;20076;-58
2022/01/08 07:07:44;;;;;;;28.10;17.80;;;;;;;-0.85;100.00;101144.97;5009519;28;20029;-59
2022/01/08 07:10:09;;;;;;;23.67;18.10;;;;;;;-0.86;100.00;101143.19;5015220;28;20514;-58
2022/01/08 07:12:35;;;;;;;25.73;18.23;;;;;;;-0.85;100.00;101143.31;5009607;28;20090;-58
2022/01/08 07:15:00;;;;;;;28.20;17.63;;;;;;;-0.86;100.00;101133.00;5009751;28;20545;-59
2022/01/08 07:17:26;;;;;;;35.40;19.43;;;;;;;-0.88;100.00;101137.09;5009863;28;20146;-58
2022/01/08 07:19:51;;;;;;;30.33;19.90;;;;;;;-0.92;100.00;101135.06;5013201;28;20567;-58
2022/01/08 07:22:16;;;;;;;28.47;18.23;;;;;;;-0.91;100.00;101137.72;5010648;28;20366;-59
2022/01/08 07:24:42;;;;;;;23.60;17.77;;;;;;;-0.89;100.00;101138.75;5012999;28;20030;-58
2022/01/08 07:27:07;;;;;;;24.53;17.97;;;;;;;-0.89;100.00;101135.28;5006545;28;20032;-60
2022/01/08 07:29:32;;;;;;;28.07;19.13;;;;;;;-0.88;100.00;101139.63;5007096;28;20034;-59
2022/01/08 07:31:58;;;;;;;26.17;18.17;;;;;;;-0.92;100.00;101132.50;5007844;28;20026;-60
2022/01/08 07:34:23;;;;;;;31.77;19.53;;;;;;;-0.88;100.00;101139.63;5010974;28;20405;-59
2022/01/08 07:36:48;;;;;;;31.90;18.53;;;;;;;-0.87;100.00;101133.78;5009869;28;20180;-58
2022/01/08 07:39:14;;;;;;;27.60;18.13;;;;;;;-0.88;100.00;101134.56;5009420;28;20026;-59
2022/01/08 07:41:39;;;;;;;30.67;18.17;;;;;;;-0.87;100.00;101131.22;5009691;28;20033;-60
2022/01/08 07:44:05;;;;;;;23.57;16.87;;;;;;;-0.86;100.00;101135.53;5009268;28;20037;-59
2022/01/08 07:46:30;;;;;;;25.70;16.47;;;;;;;-0.85;100.00;101134.81;5009347;28;20030;-60
2022/01/08 07:48:55;;;;;;;27.07;17.10;;;;;;;-0.81;100.00;101129.19;5022887;28;20041;-59
2022/01/08 07:51:21;;;;;;;25.27;16.30;;;;;;;-0.78;100.00;101128.56;5010779;28;20033;-58
2022/01/08 07:53:46;;;;;;;24.97;16.53;;;;;;;-0.77;100.00;101123.59;5009774;28;20030;-59
2022/01/08 07:56:12;;;;;;;25.60;16.47;;;;;;;-0.74;100.00;101117.88;5008963;28;20084;-58
2022/01/08 07:58:37;;;;;;;26.93;15.93;;;;;;;-0.71;100.00;101118.13;5010044;28;20037;-59
2022/01/08 08:01:02;;;;;;;26.63;15.20;;;;;;;-0.67;100.00;101121.81;5012120;28;20026;-59
2022/01/08 08:03:28;;;;;;;23.70;15.37;;;;;;;-0.65;100.00;101112.66;5027509;28;20636;-59
2022/01/08 08:05:53;;;;;;;26.60;15.47;;;;;;;-0.63;100.00;101113.66;5012791;28;20108;-60
2022/01/08 08:08:20;;;;;;;25.17;15.87;;;;;;;-0.62;100.00;101105.25;5012795;28;20045;-59
2022/01/08 08:10:48;;;;;;;25.93;15.50;;;;;;;-0.59;100.00;101112.25;5015797;28;20382;-60
2022/01/08 08:13:14;;;;;;;24.77;15.60;;;;;;;-0.59;100.00;101112.25;5026684;28;20033;-59
2022/01/08 08:15:40;;;;;;;22.57;15.80;;;;;;;-0.56;100.00;101115.94;5015027;28;20100;-60
2022/01/08 08:18:06;;;;;;;26.80;15.23;;;;;;;-0.53;100.00;101108.56;5012572;28;20108;-59
2022/01/08 08:20:31;;;;;;;27.20;16.77;;;;;;;-0.51;100.00;101106.13;5021441;28;20022;-59
2022/01/08 08:22:56;;;;;;;24.80;16.47;;;;;;;-0.48;100.00;101103.81;5028568;28;20409;-60
2022/01/08 08:25:22;;;;;;;26.77;16.90;;;;;;;-0.47;100.00;101102.16;5017850;28;20371;-60
2022/01/08 08:27:47;;;;;;;22.73;15.87;;;;;;;-0.47;100.00;101102.16;5012433;28;20466;-58
2022/01/08 08:30:12;;;;;;;22.93;16.43;;;;;;;-0.46;100.00;101093.75;5012560;28;20053;-60
2022/01/08 08:32:38;;;;;;;26.30;18.00;;;;;;;-0.45;100.00;101095.56;5012002;28;20034;-58
2022/01/08 08:35:04;;;;;;;24.20;16.90;;;;;;;-0.43;100.00;101088.94;5011803;28;20061;-57
2022/01/08 08:37:29;;;;;;;24.77;18.00;;;;;;;-0.42;100.00;101085.59;5011982;28;20045;-59
2022/01/08 08:39:55;;;;;;;26.07;17.57;;;;;;;-0.41;100.00;101084.81;5016887;28;20038;-58
2022/01/08 08:42:20;;;;;;;29.13;18.93;;;;;;;-0.39;100.00;101096.94;5011786;28;20110;-58
2022/01/08 08:44:46;;;;;;;26.90;19.30;;;;;;;-0.38;100.00;101091.06;5011962;28;20029;-59
2022/01/08 08:47:11;;;;;;;31.97;19.97;;;;;;;-0.36;100.00;101081.03;5015269;28;20394;-58
2022/01/08 08:49:37;;;;;;;30.70;19.97;;;;;;;-0.35;100.00;101087.88;5011784;28;20161;-58
2022/01/08 08:52:02;;;;;;;27.93;20.60;;;;;;;-0.35;100.00;101082.78;5011703;28;20030;-57
2022/01/08 08:54:28;;;;;;;28.43;20.47;;;;;;;-0.31;100.00;101078.84;5011762;28;20158;-58
2022/01/08 08:56:53;;;;;;;30.03;21.60;;;;;;;-0.28;100.00;101084.16;5011555;28;20072;-58
2022/01/08 08:59:18;;;;;;;28.33;21.67;;;;;;;-0.27;100.00;101081.72;5011521;28;20033;-57
2022/01/08 09:01:44;;;;;;;34.90;22.33;;;;;;;-0.25;100.00;101087.84;5011980;28;20033;-59
2022/01/08 09:04:09;;;;;;;30.37;21.57;;;;;;;-0.22;100.00;101084.66;5017848;28;20160;-58
2022/01/08 09:06:35;;;;;;;33.57;20.63;;;;;;;-0.17;100.00;101088.47;5030507;28;20037;-57
2022/01/08 09:09:01;;;;;;;32.17;22.87;;;;;;;-0.14;100.00;101072.50;5030384;28;20034;-59
2022/01/08 09:11:28;;;;;;;35.37;23.17;;;;;;;-0.08;100.00;101092.50;5021466;28;20036;-59
2022/01/08 09:13:53;;;;;;;37.17;22.83;;;;;;;-0.05;100.00;101083.44;5011297;28;20029;-58
2022/01/08 09:16:18;;;;;;;32.67;22.13;;;;;;;-0.03;100.00;101081.91;5012259;28;20026;-59
2022/01/08 09:18:45;;;;;;;32.80;22.30;;;;;;;0.02;100.00;101083.94;5030677;28;20033;-59
2022/01/08 09:21:11;;;;;;;32.57;22.33;;;;;;;0.06;100.00;101083.41;5030375;28;20081;-58
2022/01/08 09:23:37;;;;;;;33.67;22.20;;;;;;;0.09;100.00;101076.00;5030168;28;20025;-58
2022/01/08 09:26:03;;;;;;;32.03;22.17;;;;;;;0.14;100.00;101069.59;5030408;28;20085;-60
2022/01/08 09:28:30;;;;;;;32.93;22.23;;;;;;;0.15;100.00;101061.19;5030178;28;20029;-59
2022/01/08 09:30:56;;;;;;;36.13;23.90;;;;;;;0.17;100.00;101058.75;5014277;28;20038;-58
2022/01/08 09:33:21;;;;;;;36.17;25.40;;;;;;;0.20;100.00;101058.97;5010976;28;20045;-59
2022/01/08 09:35:47;;;;;;;34.13;24.57;;;;;;;0.21;100.00;101051.47;5011315;28;20026;-58
2022/01/08 09:38:13;;;;;;;41.20;26.10;;;;;;;0.24;100.00;101050.81;5015978;28;20088;-59
2022/01/08 09:40:38;;;;;;;36.20;25.90;;;;;;;0.27;100.00;101043.38;5011924;28;20022;-58
2022/01/08 09:43:04;;;;;;;34.23;25.23;;;;;;;0.30;100.00;101045.28;5010963;28;20040;-59
2022/01/08 09:45:29;;;;;;;36.90;25.53;;;;;;;0.33;100.00;101035.31;5010846;28;20038;-58
2022/01/08 09:47:55;;;;;;;32.03;23.53;;;;;;;0.36;100.00;101043.19;5015770;28;20570;-59
2022/01/08 09:50:20;;;;;;;35.63;24.57;;;;;;;0.39;100.00;101040.91;5010900;28;20114;-58
2022/01/08 09:52:45;;;;;;;35.27;25.27;;;;;;;0.43;100.00;101037.81;5010933;28;20063;-59
2022/01/08 09:55:11;;;;;;;32.80;23.77;;;;;;;0.49;100.00;101026.31;5010683;28;20108;-59
2022/01/08 09:57:36;;;;;;;34.70;22.57;;;;;;;0.52;100.00;101027.41;5010771;28;20029;-58
2022/01/08 10:00:10;;;;;;;35.47;23.30;;;;;;;0.54;100.00;101010.56;5014439;28;20045;-59
2022/01/08 10:02:35;;;;;;;35.60;23.97;;;;;;;0.55;100.00;101007.25;5012935;28;20104;-59
2022/01/08 10:05:08;;;;;;;31.43;25.07;;;;;;;0.57;100.00;101002.28;5029554;28;20534;-58
2022/01/08 10:07:34;;;;;;;32.83;23.50;;;;;;;0.58;100.00;100996.38;5029733;28;20117;-60
2022/01/08 10:10:12;;;;;;;31.67;22.67;;;;;;;0.57;100.00;100985.31;5029638;28;20538;-60
2022/01/08 10:12:59;;;;;;;34.60;24.13;;;;;;;0.58;100.00;100996.38;5025644;28;20045;-59
2022/01/08 10:18:20;;;;;;;35.07;24.10;;;;;;;0.64;100.00;100963.69;5018096;28;20169;-59
2022/01/08 10:20:49;;;;;;;;;;;;;;;0.66;100.00;100957.06;5010839;28;20048;-59
2022/01/08 10:23:23;;;;;;;32.70;22.23;;;;;;;0.69;100.00;100949.63;5009632;28;20413;-59
2022/01/08 10:26:09;;;;;;;34.27;22.23;;;;;;;0.74;100.00;100931.22;5010106;28;20041;-59
2022/01/08 10:28:40;;;;;;;31.30;21.67;;;;;;;0.75;100.00;100923.66;5022264;28;20111;-58
2022/01/08 10:31:07;;;;;;;;;;;;;;;0.80;100.00;100917.22;5023922;28;20044;-60
2022/01/08 10:33:32;;;;;;;35.27;20.57;;;;;;;0.85;100.00;100919.25;5028821;28;20063;-60
2022/01/08 10:35:58;;;;;;;32.50;19.83;;;;;;;0.90;100.00;100917.91;5029130;28;20112;-60
2022/01/08 10:38:26;;;;;;;32.17;19.27;;;;;;;0.94;100.00;100918.22;5027671;28;20041;-60
2022/01/08 10:40:52;;;;;;;24.47;16.73;;;;;;;0.99;100.00;100918.56;5016696;28;20054;-59
2022/01/08 10:43:25;;;;;;;32.40;18.50;;;;;;;1.02;100.00;100903.47;5010056;28;20185;-58
2022/01/08 10:45:52;;;;;;;26.90;17.97;;;;;;;1.07;100.00;100888.47;5023110;28;20033;-59
2022/01/08 10:48:29;;;;;;;23.33;15.67;;;;;;;1.11;100.00;100890.50;5016499;28;20518;-56
2022/01/08 10:51:13;;;;;;;29.10;18.30;;;;;;;1.14;100.00;100880.50;5010133;28;20466;-59
2022/01/08 10:53:55;;;;;;;25.53;16.30;;;;;;;1.18;100.00;100868.81;5009929;28;20042;-59
2022/01/08 10:56:36;;;;;;;25.97;15.73;;;;;;;1.22;100.00;100863.16;5009760;28;20053;-59
2022/01/08 10:59:10;;;;;;;21.13;15.63;;;;;;;1.26;100.00;100862.59;5022674;28;20036;-59
2022/01/08 11:01:36;;;;;;;24.07;15.23;;;;;;;1.28;100.00;100862.69;5027844;28;20449;-58
2022/01/08 11:04:02;;;;;;;23.87;15.43;;;;;;;1.33;100.00;100858.81;5010932;28;20052;-58
2022/01/08 11:06:28;;;;;;;21.60;14.97;;;;;;;1.34;100.00;100844.34;5015176;28;20057;-58
2022/01/08 11:09:03;;;;;;;20.50;14.40;;;;;;;1.34;100.00;100829.94;5012806;28;20029;-58
2022/01/08 11:11:30;;;;;;;21.70;13.53;;;;;;;1.35;100.00;100826.59;5009659;28;20022;-58
2022/01/08 11:14:07;;;;;;;23.20;14.80;;;;;;;1.39;100.00;100823.47;5009853;28;20032;-58
2022/01/08 11:16:34;;;;;;;21.67;14.70;;;;;;;1.41;100.00;100811.69;5015888;28;20029;-57
2022/01/08 11:19:03;;;;;;;20.07;13.23;;;;;;;1.48;100.00;100807.00;5009658;28;20034;-58
2022/01/08 11:21:31;;;;;;;23.90;13.20;;;;;;;1.50;100.00;100795.22;5009867;28;20243;-59